.
WxDataArchive / Data Records for 2006-12-17
2006-12-16 December 2006 2006-12-18

Data Records for Sunday, 17 December 2006

Time	Temp	Chill	HIndex	Humid	Dewpt	 Wind 	HiWind	WindDir	Rain 	Barom 
-----	----	-----	------	-----	-----	------	------	-------	-----	----- 
00:00	55.7	55.7	55.7	84	50.9	3	6	248	0.00	29.913 
00:05	55.7	55.7	55.7	84	50.9	3	6	248	0.00	29.913 
00:10	55.7	55.7	55.7	85	51.3	3	6	270	0.00	29.913 
00:15	55.7	55.7	55.7	85	51.3	3	7	248	0.00	29.904 
00:20	55.7	55.7	55.7	85	51.3	3	7	248	0.00	29.904 
00:25	55.9	55.9	55.9	85	51.5	4	10	248	0.00	29.904 
00:30	55.9	55.9	55.9	85	51.5	3	6	248	0.00	29.903 
00:35	55.9	55.9	55.9	85	51.5	3	5	248	0.00	29.903 
00:40	55.9	55.9	55.9	85	51.5	3	7	248	0.00	29.903 
00:45	55.9	55.9	55.9	85	51.5	4	10	248	0.00	29.899 
00:50	56.0	56.0	56.0	84	51.2	3	6	248	0.00	29.899 
00:55	56.0	56.0	56.0	85	51.6	4	10	248	0.00	29.899 
01:00	55.9	55.9	55.9	85	51.5	3	7	248	0.00	29.899 
01:05	55.9	55.9	55.9	85	51.5	3	6	248	0.00	29.899 
01:10	55.9	55.9	55.9	85	51.5	4	9	248	0.00	29.899 
01:15	56.0	56.0	56.0	85	51.6	3	9	248	0.00	29.892 
01:20	56.0	56.0	56.0	85	51.6	3	10	248	0.00	29.892 
01:25	56.0	56.0	56.0	85	51.6	4	9	248	0.00	29.892 
01:30	56.0	56.0	56.0	84	51.2	3	8	248	0.00	29.895 
01:35	56.0	56.0	56.0	84	51.2	3	7	248	0.00	29.895 
01:40	55.9	55.9	55.9	84	51.1	2	6	248	0.00	29.895 
01:45	55.9	55.9	55.9	85	51.5	3	6	248	0.00	29.892 
01:50	55.9	55.9	55.9	85	51.5	3	9	248	0.00	29.892 
01:55	55.9	55.9	55.9	85	51.5	3	6	248	0.00	29.892 
02:00	55.9	55.9	55.9	85	51.5	3	7	248	0.00	29.893 
02:05	55.9	55.9	55.9	85	51.5	3	10	248	0.00	29.893 
02:10	55.7	55.7	55.7	85	51.3	2	7	248	0.00	29.893 
02:15	55.7	55.7	55.7	85	51.3	2	7	248	0.00	29.894 
02:20	55.6	55.6	55.6	85	51.2	3	7	248	0.00	29.894 
02:25	55.6	55.6	55.6	85	51.2	2	6	248	0.00	29.894 
02:30	55.6	55.6	55.6	85	51.2	3	6	248	0.00	29.896 
02:35	55.6	55.6	55.6	85	51.2	2	4	248	0.00	29.896 
02:40	55.6	55.6	55.6	85	51.2	2	6	248	0.00	29.896 
02:45	55.6	55.6	55.6	85	51.2	2	6	248	0.00	29.902 
02:50	55.6	55.6	55.6	85	51.2	3	7	248	0.00	29.902 
02:55	55.6	55.6	55.6	85	51.2	3	9	248	0.00	29.902 
03:00	55.7	55.7	55.7	85	51.3	3	7	248	0.00	29.897 
03:05	55.7	55.7	55.7	85	51.3	3	7	248	0.00	29.897 
03:10	55.7	55.7	55.7	85	51.3	3	7	248	0.00	29.897 
03:15	55.9	55.9	55.9	85	51.5	4	10	248	0.00	29.902 
03:20	55.9	55.9	55.9	85	51.5	3	9	248	0.00	29.902 
03:25	55.9	55.9	55.9	85	51.5	3	6	248	0.00	29.902 
03:30	55.9	55.9	55.9	84	51.1	3	7	248	0.00	29.900 
03:35	55.9	55.9	55.9	84	51.1	3	7	248	0.00	29.900 
03:40	55.9	55.9	55.9	85	51.5	3	6	248	0.00	29.900 
03:45	55.9	55.9	55.9	85	51.5	3	6	248	0.00	29.902 
03:50	55.9	55.9	55.9	85	51.5	3	7	248	0.00	29.902 
03:55	55.9	55.9	55.9	84	51.1	3	7	248	0.00	29.902 
04:00	55.7	55.7	55.7	85	51.3	3	6	248	0.00	29.899 
04:05	55.6	55.6	55.6	85	51.2	2	5	248	0.00	29.899 
04:10	55.6	55.6	55.6	85	51.2	3	7	248	0.00	29.899 
04:15	55.7	55.7	55.7	85	51.3	3	6	248	0.00	29.903 
04:20	55.7	55.7	55.7	85	51.3	2	5	248	0.00	29.903 
04:25	55.9	55.9	55.9	85	51.5	3	7	248	0.00	29.903 
04:30	56.0	56.0	56.0	85	51.6	3	6	248	0.00	29.904 
04:35	56.0	56.0	56.0	85	51.6	2	7	248	0.00	29.904 
04:40	56.2	56.2	56.2	85	51.7	3	5	248	0.00	29.904 
04:45	56.3	56.3	56.3	85	51.8	3	7	248	0.00	29.907 
04:50	56.3	56.3	56.3	85	51.8	3	5	248	0.00	29.907 
04:55	56.5	56.5	56.5	84	51.7	2	7	248	0.00	29.907 
05:00	56.5	56.5	56.5	84	51.7	3	7	248	0.00	29.906 
05:05	56.6	56.6	56.6	84	51.8	3	6	248	0.00	29.906 
05:10	56.7	56.7	56.7	84	51.9	3	7	248	0.00	29.906 
05:15	56.7	56.7	56.7	84	51.9	4	10	248	0.00	29.908 
05:20	56.7	56.7	56.7	84	51.9	3	6	248	0.00	29.908 
05:25	56.7	56.7	56.7	84	51.9	3	7	248	0.00	29.908 
05:30	56.9	56.9	56.9	84	52.1	4	7	248	0.00	29.911 
05:35	56.9	56.9	56.9	84	52.1	3	9	248	0.00	29.911 
05:40	56.9	56.9	56.9	84	52.1	3	9	248	0.00	29.911 
05:45	56.9	56.9	56.9	84	52.1	3	9	248	0.00	29.921 
05:50	56.9	56.9	56.9	84	52.1	3	9	248	0.00	29.921 
05:55	56.9	56.9	56.9	84	52.1	3	7	248	0.00	29.921 
06:00	57.0	57.0	57.0	84	52.2	3	7	248	0.00	29.922 
06:05	57.0	57.0	57.0	84	52.2	3	7	248	0.00	29.922 
06:10	57.0	57.0	57.0	84	52.2	3	7	248	0.00	29.922 
06:15	57.0	57.0	57.0	84	52.2	3	8	248	0.00	29.928 
06:20	57.0	57.0	57.0	84	52.2	2	4	248	0.00	29.928 
06:25	57.0	57.0	57.0	84	52.2	4	9	248	0.00	29.928 
06:30	57.2	57.2	57.2	84	52.4	4	10	248	0.00	29.938 
06:35	57.0	57.0	57.0	85	52.5	4	10	270	0.00	29.938 
06:40	56.9	56.9	56.9	85	52.4	3	7	248	0.00	29.938 
06:45	56.7	56.7	56.7	86	52.6	3	7	248	0.00	29.937 
06:50	56.7	56.7	56.7	86	52.6	3	7	248	0.00	29.937 
06:55	56.7	56.7	56.7	87	52.9	4	8	270	0.00	29.937 
07:00	56.6	56.6	56.6	87	52.8	3	7	248	0.00	29.939 
07:05	56.6	56.6	56.6	87	52.8	3	6	248	0.00	29.939 
07:10	56.6	56.6	56.6	87	52.8	3	9	248	0.00	29.939 
07:15	56.6	56.6	56.6	87	52.8	3	9	248	0.00	29.945 
07:20	56.6	56.6	56.6	86	52.5	3	6	248	0.00	29.945 
07:25	56.6	56.6	56.6	86	52.5	2	5	248	0.00	29.945 
07:30	56.6	56.6	56.6	86	52.5	3	6	248	0.00	29.952 
07:35	56.7	56.7	56.7	86	52.6	3	11	248	0.00	29.952 
07:40	56.6	56.6	56.6	86	52.5	2	6	248	0.00	29.952 
07:45	56.6	56.6	56.6	86	52.5	2	5	248	0.00	29.954 
07:50	56.6	56.6	56.6	87	52.8	3	7	248	0.00	29.954 
07:55	56.6	56.6	56.6	87	52.8	3	10	248	0.00	29.954 
08:00	56.6	56.6	56.6	87	52.8	2	5	248	0.00	29.955 
08:05	56.5	56.5	56.5	88	53.0	2	4	248	0.00	29.955 
08:10	56.3	56.3	56.3	88	52.8	1	5	248	0.00	29.955 
08:15	56.2	56.2	56.2	88	52.7	1	4	248	0.00	29.957 
08:20	56.0	56.0	56.0	89	52.8	2	5	248	0.00	29.957 
08:25	55.9	55.9	55.9	90	53.0	2	4	248	0.00	29.957 
08:30	55.7	55.7	55.7	90	52.8	1	4	248	0.00	29.970 
08:35	55.7	55.7	55.7	91	53.1	1	5	248	0.00	29.970 
08:40	55.6	55.6	55.6	92	53.3	1	4	248	0.00	29.970 
08:45	55.4	55.4	55.4	92	53.1	1	3	248	0.00	29.981 
08:50	55.3	55.3	55.3	93	53.3	1	3	248	0.00	29.981 
08:55	55.1	55.1	55.1	93	53.1	0	2	248	0.00	29.981 
09:00	55.0	55.0	55.0	93	53.0	1	3	248	0.00	29.988 
09:05	55.0	55.0	55.0	94	53.3	1	3	248	0.00	29.988 
09:10	54.8	54.8	54.8	94	53.1	0	2	248	0.00	29.988 
09:15	54.8	54.8	54.8	95	53.4	1	2	248	0.00	29.993 
09:20	54.8	54.8	54.8	95	53.4	1	3	248	0.00	29.993 
09:25	54.8	54.8	54.8	95	53.4	1	3	248	0.00	29.993 
09:30	54.8	54.8	54.8	95	53.4	1	3	248	0.00	29.993 
09:35	54.8	54.8	54.8	95	53.4	1	3	248	0.00	29.993 
09:40	54.8	54.8	54.8	95	53.4	1	2	248	0.00	29.993 
09:45	54.8	54.8	54.8	96	53.7	1	4	248	0.00	29.999 
09:50	54.8	54.8	54.8	96	53.7	1	4	248	0.00	29.999 
09:55	54.8	54.8	54.8	96	53.7	1	3	248	0.00	29.999 
10:00	54.8	54.8	54.8	96	53.7	1	3	248	0.00	30.002 
10:05	54.8	54.8	54.8	96	53.7	1	4	248	0.00	30.002 
10:10	54.8	54.8	54.8	96	53.7	1	3	248	0.00	30.002 
10:15	54.8	54.8	54.8	96	53.7	1	2	248	0.00	30.008 
10:20	54.8	54.8	54.8	96	53.7	1	3	248	0.00	30.008 
10:25	54.8	54.8	54.8	96	53.7	1	3	248	0.00	30.008 
10:30	54.8	54.8	54.8	96	53.7	1	3	248	0.00	30.009 
10:35	54.8	54.8	54.8	96	53.7	1	3	248	0.00	30.009 
10:40	54.8	54.8	54.8	96	53.7	1	2	248	0.00	30.009 
10:45	54.8	54.8	54.8	96	53.7	1	4	248	0.00	30.010 
10:50	54.8	54.8	54.8	96	53.7	1	4	248	0.00	30.010 
10:55	54.8	54.8	54.8	96	53.7	2	5	248	0.00	30.010 
11:00	54.8	54.8	54.8	96	53.7	2	4	248	0.00	30.015 
11:05	54.8	54.8	54.8	96	53.7	1	3	270	0.00	30.015 
11:10	54.8	54.8	54.8	96	53.7	2	5	248	0.00	30.015 
11:15	54.8	54.8	54.8	96	53.7	1	3	248	0.00	30.017 
11:20	54.8	54.8	54.8	96	53.7	1	2	270	0.00	30.017 
11:25	54.8	54.8	54.8	96	53.7	1	3	248	0.00	30.017 
11:30	54.8	54.8	54.8	96	53.7	1	5	248	0.00	30.012 
11:35	54.7	54.7	54.7	96	53.6	1	2	248	0.00	30.012 
11:40	54.7	54.7	54.7	96	53.6	0	2	248	0.00	30.012 
11:45	54.7	54.7	54.7	96	53.6	1	2	248	0.00	30.010 
11:50	54.7	54.7	54.7	96	53.6	1	3	248	0.00	30.010 
11:55	54.5	54.5	54.5	96	53.4	0	1	248	0.00	30.010 
12:00	54.5	54.5	54.5	96	53.4	0	1	248	0.00	30.002 
12:05	54.5	54.5	54.5	96	53.4	0	1	248	0.00	30.002 
12:10	54.5	54.5	54.5	96	53.4	0	1	248	0.00	30.002 
12:15	54.4	54.4	54.4	96	53.3	0	2	248	0.00	30.000 
12:20	54.4	54.4	54.4	96	53.3	0	2	248	0.00	30.000 
12:25	54.4	54.4	54.4	96	53.3	0	2	248	0.00	30.000 
12:30	54.4	54.4	54.4	96	53.3	1	3	248	0.00	29.997 
12:35	54.4	54.4	54.4	96	53.3	0	2	270	0.00	29.997 
12:40	54.4	54.4	54.4	96	53.3	1	4	248	0.00	29.997 
12:45	54.4	54.4	54.4	96	53.3	1	3	248	0.00	29.998 
12:50	54.4	54.4	54.4	95	53.0	0	2	248	0.00	29.998 
12:55	54.4	54.4	54.4	95	53.0	0	2	248	0.00	29.998 
13:00	54.2	54.2	54.2	95	52.8	1	3	248	0.00	30.001 
13:05	54.2	54.2	54.2	95	52.8	0	2	248	0.00	30.001 
13:10	54.2	54.2	54.2	94	52.5	0	4	248	0.00	30.001 
13:15	54.2	54.2	54.2	94	52.5	0	2	248	0.00	29.996 
13:20	54.2	54.2	54.2	94	52.5	0	1	248	0.00	29.996 
13:25	54.1	54.1	54.1	94	52.4	0	2	270	0.00	29.996 
13:30	53.8	53.8	53.8	94	52.1	0	2	292	0.00	29.991 
13:35	53.6	53.6	53.6	94	51.9	0	1	292	0.00	29.991 
13:40	53.5	53.5	53.5	94	51.8	0	1	292	0.00	29.991 
13:45	53.3	53.3	53.3	94	51.6	0	1	292	0.00	29.991 
13:50	53.3	53.3	53.3	94	51.6	0	1	292	0.00	29.991 
13:55	53.2	53.2	53.2	95	51.8	0	1	292	0.00	29.991 
14:00	52.9	52.9	52.9	95	51.5	0	1	292	0.00	29.989 
14:05	52.6	52.6	52.6	94	50.9	0	1	292	0.00	29.989 
14:10	52.5	52.5	52.5	95	51.1	0	1	292	0.00	29.989 
14:15	52.3	52.3	52.3	95	50.9	0	2	292	0.00	29.988 
14:20	52.2	52.2	52.2	95	50.8	0	1	292	0.00	29.988 
14:25	52.2	52.2	52.2	95	50.8	0	0	---	0.00	29.988 
14:30	52.0	52.0	52.0	95	50.6	0	1	292	0.00	29.990 
14:35	51.7	51.7	51.7	95	50.3	0	2	292	0.00	29.990 
14:40	51.7	51.7	51.7	96	50.6	0	1	292	0.00	29.990 
14:45	51.6	51.6	51.6	96	50.5	0	1	292	0.00	29.992 
14:50	51.6	51.6	51.6	96	50.5	0	1	292	0.00	29.992 
14:55	51.6	51.6	51.6	96	50.5	0	1	292	0.00	29.992 
15:00	51.6	51.6	51.6	96	50.5	0	1	292	0.00	29.995 
15:05	51.4	51.4	51.4	96	50.3	0	1	292	0.00	29.995 
15:10	51.4	51.4	51.4	96	50.3	0	1	292	0.00	29.995 
15:15	51.4	51.4	51.4	96	50.3	0	1	292	0.00	29.993 
15:20	51.4	51.4	51.4	96	50.3	0	0	---	0.00	29.993 
15:25	51.4	51.4	51.4	96	50.3	0	1	292	0.01	29.993 
15:30	51.3	51.3	51.3	96	50.2	0	1	292	0.00	30.000 
15:35	51.1	51.1	51.1	96	50.0	0	1	292	0.00	30.000 
15:40	51.1	51.1	51.1	96	50.0	0	2	315	0.00	30.000 
15:45	51.0	51.0	51.0	96	49.9	0	2	315	0.00	30.003 
15:50	50.7	50.7	50.7	96	49.6	0	2	315	0.00	30.003 
15:55	50.5	50.5	50.5	96	49.4	0	1	315	0.00	30.003 
16:00	50.5	50.5	50.5	96	49.4	0	1	315	0.00	30.008 
16:05	50.4	50.4	50.4	96	49.3	0	1	315	0.00	30.008 
16:10	50.4	50.4	50.4	96	49.3	0	1	315	0.00	30.008 
16:15	50.2	50.2	50.2	96	49.1	0	3	0	0.00	30.010 
16:20	50.1	50.1	50.1	96	49.0	0	2	315	0.00	30.010 
16:25	49.9	49.9	49.9	97	49.1	0	2	292	0.00	30.010 
16:30	49.8	49.8	49.8	96	48.7	0	2	292	0.00	30.020 
16:35	49.6	49.6	49.6	97	48.8	0	2	292	0.00	30.020 
16:40	49.4	49.4	49.4	96	48.3	0	1	292	0.00	30.020 
16:45	49.1	49.1	49.1	96	48.0	1	2	292	0.00	30.022 
16:50	48.8	48.8	48.8	96	47.7	1	2	338	0.00	30.022 
16:55	48.6	48.6	48.6	96	47.5	0	3	338	0.00	30.022 
17:00	48.5	48.5	48.5	96	47.4	0	2	0	0.01	30.036 
17:05	48.3	48.3	48.3	96	47.2	0	1	0	0.00	30.036 
17:10	48.2	48.2	48.2	96	47.1	0	2	0	0.01	30.036 
17:15	48.0	48.0	48.0	96	46.9	0	3	292	0.00	30.042 
17:20	47.9	47.9	47.9	96	46.8	1	2	315	0.01	30.042 
17:25	47.6	47.6	47.6	96	46.5	0	2	315	0.00	30.042 
17:30	47.4	47.4	47.4	96	46.3	1	3	270	0.00	30.048 
17:35	47.4	47.4	47.4	96	46.3	0	1	270	0.00	30.048 
17:40	47.3	47.3	47.3	96	46.2	0	1	270	0.00	30.048 
17:45	47.3	47.3	47.3	96	46.2	0	1	270	0.00	30.040 
17:50	47.1	47.1	47.1	96	46.0	0	0	---	0.00	30.040 
17:55	47.0	47.0	47.0	96	45.9	0	0	---	0.00	30.040 
18:00	47.0	47.0	47.0	96	45.9	0	1	270	0.00	30.039 
18:05	47.0	47.0	47.0	96	45.9	0	1	270	0.00	30.039 
18:10	46.8	46.8	46.8	96	45.7	0	0	---	0.00	30.039 
18:15	46.8	46.8	46.8	96	45.7	0	0	---	0.00	30.038 
18:20	46.7	46.7	46.7	96	45.6	0	0	---	0.00	30.038 
18:25	46.7	46.7	46.7	96	45.6	0	1	270	0.00	30.038 
18:30	46.7	46.7	46.7	96	45.6	0	0	---	0.00	30.041 
18:35	46.7	46.7	46.7	96	45.6	0	0	---	0.00	30.041 
18:40	46.7	46.7	46.7	96	45.6	0	1	270	0.00	30.041 
18:45	46.7	46.7	46.7	96	45.6	0	1	270	0.00	30.037 
18:50	46.8	46.8	46.8	96	45.7	0	0	---	0.00	30.037 
18:55	46.8	46.8	46.8	96	45.7	0	0	---	0.00	30.037 
19:00	46.8	46.8	46.8	96	45.7	0	0	---	0.00	30.042 
19:05	46.8	46.8	46.8	96	45.7	0	0	---	0.00	30.042 
19:10	46.8	46.8	46.8	96	45.7	0	0	---	0.00	30.042 
19:15	46.8	46.8	46.8	96	45.7	0	0	---	0.00	30.050 
19:20	46.8	46.8	46.8	96	45.7	0	0	---	0.00	30.050 
19:25	46.8	46.8	46.8	96	45.7	0	0	---	0.00	30.050 
19:30	46.8	46.8	46.8	96	45.7	0	0	---	0.00	30.049 
19:35	46.8	46.8	46.8	96	45.7	0	0	---	0.00	30.049 
19:40	46.8	46.8	46.8	96	45.7	0	0	---	0.00	30.049 
19:45	46.8	46.8	46.8	96	45.7	0	0	---	0.00	30.054 
19:50	46.8	46.8	46.8	96	45.7	0	0	---	0.00	30.054 
19:55	46.8	46.8	46.8	96	45.7	0	0	---	0.00	30.054 
20:00	46.8	46.8	46.8	96	45.7	0	0	---	0.00	30.055 
20:05	46.8	46.8	46.8	96	45.7	0	0	---	0.00	30.055 
20:10	46.8	46.8	46.8	96	45.7	0	0	---	0.00	30.055 
20:15	46.8	46.8	46.8	96	45.7	0	1	270	0.00	30.058 
20:20	46.8	46.8	46.8	96	45.7	0	0	---	0.00	30.058 
20:25	46.8	46.8	46.8	96	45.7	0	0	---	0.00	30.058 
20:30	46.8	46.8	46.8	96	45.7	0	0	---	0.00	30.048 
20:35	46.7	46.7	46.7	96	45.6	0	0	---	0.00	30.048 
20:40	46.7	46.7	46.7	96	45.6	0	0	---	0.00	30.048 
20:45	46.7	46.7	46.7	96	45.6	0	0	---	0.00	30.054 
20:50	46.7	46.7	46.7	96	45.6	0	0	---	0.00	30.054 
20:55	46.7	46.7	46.7	96	45.6	0	0	---	0.00	30.054 
21:00	46.7	46.7	46.7	96	45.6	0	0	---	0.00	30.053 
21:05	46.7	46.7	46.7	96	45.6	0	0	---	0.00	30.053 
21:10	46.7	46.7	46.7	96	45.6	0	0	---	0.00	30.053 
21:15	46.5	46.5	46.5	96	45.4	0	0	---	0.00	30.050 
21:20	46.5	46.5	46.5	96	45.4	0	0	---	0.00	30.050 
21:25	46.5	46.5	46.5	96	45.4	0	0	---	0.00	30.050 
21:30	46.5	46.5	46.5	96	45.4	0	0	---	0.00	30.045 
21:35	46.5	46.5	46.5	96	45.4	0	0	---	0.00	30.045 
21:40	46.5	46.5	46.5	96	45.4	0	1	270	0.00	30.045 
21:45	46.4	46.4	46.4	96	45.3	0	1	270	0.00	30.057 
21:50	46.4	46.4	46.4	96	45.3	0	1	270	0.00	30.057 
21:55	46.2	46.2	46.2	96	45.1	0	0	---	0.00	30.057 
22:00	46.2	46.2	46.2	96	45.1	0	0	---	0.00	30.052 
22:05	46.1	46.1	46.1	96	45.0	0	0	---	0.00	30.052 
22:10	46.1	46.1	46.1	96	45.0	0	1	270	0.00	30.052 
22:15	46.0	46.0	46.0	95	44.6	0	0	---	0.00	30.050 
22:20	46.0	46.0	46.0	95	44.6	0	0	---	0.00	30.050 
22:25	46.0	46.0	46.0	95	44.6	0	1	270	0.00	30.050 
22:30	45.8	45.8	45.8	94	44.2	0	3	270	0.00	30.059 
22:35	45.5	45.5	45.5	93	43.6	0	1	270	0.00	30.059 
22:40	45.4	45.4	45.4	92	43.2	0	1	315	0.00	30.059 
22:45	45.2	45.2	45.2	91	42.7	1	3	338	0.01	30.059 
22:50	44.9	44.9	44.9	89	41.9	1	3	292	0.00	30.059 
22:55	44.8	44.8	44.8	88	41.5	1	3	270	0.00	30.059 
23:00	44.5	44.5	44.5	88	41.2	1	2	292	0.00	30.071 
23:05	44.2	44.2	44.2	86	40.3	1	5	338	0.00	30.071 
23:10	43.9	43.9	43.9	86	40.0	0	2	338	0.00	30.071 
23:15	43.8	43.8	43.8	87	40.2	0	1	338	0.00	30.054 
23:20	43.6	43.6	43.6	86	39.7	1	2	338	0.00	30.054 
23:25	43.5	43.5	43.5	84	39.0	1	4	338	0.00	30.054 
23:30	43.5	43.5	43.5	85	39.3	0	2	22	0.00	30.061 
23:35	43.3	43.3	43.3	84	38.8	0	3	22	0.00	30.061 
23:40	43.2	43.2	43.2	83	38.4	0	1	22	0.00	30.061 
23:45	43.1	43.1	43.1	81	37.7	0	2	22	0.00	30.059 
23:50	43.1	43.1	43.1	81	37.7	0	2	22	0.00	30.059 
23:55	43.1	43.1	43.1	81	37.7	0	1	22	0.00	30.059 

CoCoRaHS
IN-AL-39
A2 Web Hosting
Creative Commons License
GoDaddy
Look for:

loaded 2017-10-19 20:12:56 • last modified 2010-11-18 10:43:29
Privacy PolicyDisclaimer
• wx.awcolley.com is powered by PmWiki v.2002016 •
• all content (unless otherwise noted) © 2017 A W Colley